createdAt,value
2023-01-22T00:02:39.720Z,30
2023-01-22T00:30:57.352Z,30
2023-01-22T00:59:17.359Z,29
2023-01-22T01:27:40.731Z,31
2023-01-22T01:55:52.981Z,34
2023-01-22T02:24:10.512Z,35
2023-01-22T02:52:21.926Z,34
2023-01-22T03:20:46.883Z,33
2023-01-22T03:49:12.919Z,33
2023-01-22T04:17:35.245Z,32
2023-01-22T04:45:49.902Z,31
2023-01-22T05:14:11.036Z,36
2023-01-22T05:42:32.382Z,35
2023-01-22T06:10:52.043Z,36
2023-01-22T06:39:01.349Z,38
2023-01-22T07:07:19.020Z,40
2023-01-22T07:35:31.531Z,42
2023-01-22T08:03:48.527Z,41
2023-01-22T08:32:04.328Z,41
2023-01-22T09:00:22.549Z,41
2023-01-22T09:28:37.803Z,42
2023-01-22T09:56:56.949Z,37
2023-01-22T10:25:07.120Z,31
2023-01-22T10:53:28.252Z,32
2023-01-22T11:21:49.348Z,29
2023-01-22T11:50:01.231Z,30
2023-01-22T12:18:23.069Z,30
2023-01-22T12:46:38.316Z,30
2023-01-22T13:14:52.641Z,25
2023-01-22T13:43:09.587Z,27
2023-01-22T14:12:06.317Z,27
2023-01-22T14:40:51.251Z,30
2023-01-22T15:09:38.781Z,27
2023-01-22T15:38:37.635Z,27
2023-01-22T16:07:34.665Z,27
2023-01-22T16:36:26.223Z,29
2023-01-22T17:04:55.255Z,30
2023-01-22T17:33:15.700Z,29
2023-01-22T18:01:30.207Z,35
2023-01-22T18:29:44.197Z,35
2023-01-22T18:58:05.027Z,37
2023-01-22T19:26:18.900Z,37
2023-01-22T19:54:30.398Z,38
2023-01-22T20:22:40.500Z,41
2023-01-22T20:50:57.841Z,38
2023-01-22T21:19:18.430Z,40
2023-01-22T21:47:28.215Z,41
2023-01-22T22:15:39.557Z,41
2023-01-22T22:43:54.817Z,41
2023-01-22T23:12:10.597Z,38
2023-01-22T23:40:27.899Z,41
